地図

経路データ

SID SEASON NUMBER BASIN SUBBASIN NAME ISO_TIME NATURE LAT LON WMO_WIND WMO_PRES WMO_AGENCY TRACK_TYPE DIST2LAND LANDFALL IFLAG USA_AGENCY USA_ATCF_ID USA_LAT USA_LON USA_RECORD USA_STATUS USA_WIND USA_PRES USA_SSHS USA_R34_NE USA_R34_SE USA_R34_SW USA_R34_NW USA_R50_NE USA_R50_SE USA_R50_SW USA_R50_NW USA_R64_NE USA_R64_SE USA_R64_SW USA_R64_NW USA_POCI USA_ROCI USA_RMW USA_EYE TOKYO_LAT TOKYO_LON TOKYO_GRADE TOKYO_WIND TOKYO_PRES TOKYO_R50_DIR TOKYO_R50_LONG TOKYO_R50_SHORT TOKYO_R30_DIR TOKYO_R30_LONG TOKYO_R30_SHORT TOKYO_LAND CMA_LAT CMA_LON CMA_CAT CMA_WIND CMA_PRES HKO_LAT HKO_LON HKO_CAT HKO_WIND HKO_PRES NEWDELHI_LAT NEWDELHI_LON NEWDELHI_GRADE NEWDELHI_WIND NEWDELHI_PRES NEWDELHI_CI NEWDELHI_DP NEWDELHI_POCI REUNION_LAT REUNION_LON REUNION_TYPE REUNION_WIND REUNION_PRES REUNION_TNUM REUNION_CI REUNION_RMW REUNION_R34_NE REUNION_R34_SE REUNION_R34_SW REUNION_R34_NW REUNION_R50_NE REUNION_R50_SE REUNION_R50_SW REUNION_R50_NW REUNION_R64_NE REUNION_R64_SE REUNION_R64_SW REUNION_R64_NW BOM_LAT BOM_LON BOM_TYPE BOM_WIND BOM_PRES BOM_TNUM BOM_CI BOM_RMW BOM_R34_NE BOM_R34_SE BOM_R34_SW BOM_R34_NW BOM_R50_NE BOM_R50_SE BOM_R50_SW BOM_R50_NW BOM_R64_NE BOM_R64_SE BOM_R64_SW BOM_R64_NW BOM_ROCI BOM_POCI BOM_EYE BOM_POS_METHOD BOM_PRES_METHOD NADI_LAT NADI_LON NADI_CAT NADI_WIND NADI_PRES WELLINGTON_LAT WELLINGTON_LON WELLINGTON_WIND WELLINGTON_PRES DS824_LAT DS824_LON DS824_STAGE DS824_WIND DS824_PRES TD9636_LAT TD9636_LON TD9636_STAGE TD9636_WIND TD9636_PRES TD9635_LAT TD9635_LON TD9635_WIND TD9635_PRES TD9635_ROCI NEUMANN_LAT NEUMANN_LON NEUMANN_CLASS NEUMANN_WIND NEUMANN_PRES MLC_LAT MLC_LON MLC_CLASS MLC_WIND MLC_PRES USA_GUST BOM_GUST BOM_GUST_PER REUNION_GUST REUNION_GUST_PER USA_SEAHGT USA_SEARAD_NE USA_SEARAD_SE USA_SEARAD_SW USA_SEARAD_NW STORM_SPEED STORM_DIR
1950185N18254 1950 32 EP MM NOT_NAMED 1950-07-03 12:00:00 TS 18.4000 -105.900 75 hurdat_epa main 145 138 O________OO___ hurdat_epa EP021950 18.4000 -105.900 HU 75 1 18.4000 -105.900 TC 75 18.4000 -105.900 4 7 328
1950185N18254 1950 32 EP MM NOT_NAMED 1950-07-03 15:00:00 TS 18.7033 -106.098 main 139 130 P________PP___ EP021950 18.7151 -106.102 HU 75 1 18.7151 -106.102 TC 75 18.6563 -106.083 4 7 327
1950185N18254 1950 32 EP MM NOT_NAMED 1950-07-03 18:00:00 TS 18.9840 -106.295 75 hurdat_epa main 130 124 O________OP___ hurdat_epa EP021950 19.0000 -106.300 HU 75 1 19.0000 -106.300 TC 75 18.9201 -106.273 4 6 325
1950185N18254 1950 32 EP MM NOT_NAMED 1950-07-03 21:00:00 TS 19.2337 -106.489 main 137 130 P________PP___ EP021950 19.2425 -106.493 HU 75 1 19.2425 -106.493 TC 75 19.1988 -106.476 4 6 323
1950185N18254 1950 32 EP MM NOT_NAMED 1950-07-04 00:00:00 TS 19.5000 -106.700 75 hurdat_epa main 137 133 O________OO___ hurdat_epa EP021950 19.5000 -106.700 HU 75 1 19.5000 -106.700 TC 75 19.5000 -106.700 4 7 325
1950185N18254 1950 32 EP MM NOT_NAMED 1950-07-04 03:00:00 TS 19.8450 -106.938 main 142 142 P________PP___ EP021950 19.8500 -106.935 HU 75 1 19.8500 -106.935 TC 75 19.8253 -106.949 4 8 325
1950185N18254 1950 32 EP MM NOT_NAMED 1950-07-04 06:00:00 TS 20.1905 -107.204 75 hurdat_epa main 158 158 O________OP___ hurdat_epa EP021950 20.2000 -107.200 HU 75 1 20.2000 -107.200 TC 75 20.1524 -107.219 4 8 320
1950185N18254 1950 32 EP MM NOT_NAMED 1950-07-04 09:00:00 TS 20.4747 -107.495 main 187 187 P________PP___ EP021950 20.4800 -107.493 HU 75 1 20.4800 -107.493 TC 75 20.4534 -107.505 4 8 312
1950185N18254 1950 32 EP MM NOT_NAMED 1950-07-04 12:00:00 TS 20.7000 -107.800 75 hurdat_epa main 221 221 O________OO___ hurdat_epa EP021950 20.7000 -107.800 HU 75 1 20.7000 -107.800 TC 75 20.7000 -107.800 4 7 305
1950185N18254 1950 32 EP MM NOT_NAMED 1950-07-04 15:00:00 TS 20.8762 -108.097 main 255 255 P________PP___ EP021950 20.8799 -108.100 HU 75 1 20.8799 -108.100 TC 75 20.8613 -108.085 4 6 298
1950185N18254 1950 32 EP MM NOT_NAMED 1950-07-04 18:00:00 TS 20.9934 -108.396 75 hurdat_epa main 256 230 O________OP___ hurdat_epa EP021950 21.0000 -108.400 HU 75 1 21.0000 -108.400 TC 75 20.9672 -108.378 4 6 288
1950185N18254 1950 32 EP MM NOT_NAMED 1950-07-04 21:00:00 TS 21.0598 -108.691 main 230 217 P________PP___ EP021950 21.0649 -108.693 HU 75 1 21.0649 -108.693 TC 75 21.0394 -108.682 4 6 281
1950185N18254 1950 32 EP MM NOT_NAMED 1950-07-05 00:00:00 TS 21.1000 -109.000 75 hurdat_epa main 217 207 O________OO___ hurdat_epa EP021950 21.1000 -109.000 HU 75 1 21.1000 -109.000 TC 75 21.1000 -109.000 4 6 278
1950185N18254 1950 32 EP MM NOT_NAMED 1950-07-05 03:00:00 TS 21.1455 -109.340 main 207 190 P________PP___ EP021950 21.1425 -109.343 HU 75 1 21.1425 -109.343 TC 75 21.1576 -109.328 4 7 279
1950185N18254 1950 32 EP MM NOT_NAMED 1950-07-05 06:00:00 TS 21.2024 -109.694 75 hurdat_epa main 190 178 O________OP___ hurdat_epa EP021950 21.2000 -109.700 HU 75 1 21.2000 -109.700 TC 75 21.2122 -109.671 4 7 282
1950185N18254 1950 32 EP MM NOT_NAMED 1950-07-05 09:00:00 TS 21.2790 -110.040 main 178 170 P________PP___ EP021950 21.2774 -110.043 HU 75 1 21.2774 -110.043 TC 75 21.2857 -110.028 4 7 287
1950185N18254 1950 32 EP MM NOT_NAMED 1950-07-05 12:00:00 TS 21.4000 -110.400 75 hurdat_epa main 172 162 O________OO___ hurdat_epa EP021950 21.4000 -110.400 HU 75 1 21.4000 -110.400 TC 75 21.4000 -110.400 4 8 293
1950185N18254 1950 32 EP MM NOT_NAMED 1950-07-05 15:00:00 TS 21.5775 -110.791 main 167 162 P________PP___ EP021950 21.5775 -110.793 HU 75 1 21.5775 -110.793 TC 75 21.5777 -110.785 4 8 298
1950185N18254 1950 32 EP MM NOT_NAMED 1950-07-05 18:00:00 TS 21.7995 -111.197 75 hurdat_epa main 174 174 O________OP___ hurdat_epa EP021950 21.8000 -111.200 HU 75 1 21.8000 -111.200 TC 75 21.7973 -111.185 4 9 302
1950185N18254 1950 32 EP MM NOT_NAMED 1950-07-05 21:00:00 TS 22.0426 -111.598 main 192 187 P________PP___ EP021950 22.0424 -111.600 HU 75 1 22.0424 -111.600 TC 75 22.0433 -111.592 4 9 304
1950185N18254 1950 32 EP MM NOT_NAMED 1950-07-06 00:00:00 TS 22.3000 -112.000 75 hurdat_epa main 212 211 O________OO___ hurdat_epa EP021950 22.3000 -112.000 HU 75 1 22.3000 -112.000 TC 75 22.3000 -112.000 4 9 304
1950185N18254 1950 32 EP MM NOT_NAMED 1950-07-06 03:00:00 TS 22.5509 -112.401 main 213 210 P________PP___ EP021950 22.5499 -112.400 HU 75 1 22.5499 -112.400 TC 75 22.5547 -112.404 4 9 304
1950185N18254 1950 32 EP MM NOT_NAMED 1950-07-06 06:00:00 TS 22.8011 -112.801 75 hurdat_epa main 215 207 O________OP___ hurdat_epa EP021950 22.8000 -112.800 HU 75 1 22.8000 -112.800 TC 75 22.8057 -112.804 4 9 304
1950185N18254 1950 32 EP MM NOT_NAMED 1950-07-06 09:00:00 TS 23.0509 -113.200 main 210 210 P________PP___ EP021950 23.0502 -113.200 HU 75 1 23.0502 -113.200 TC 75 23.0538 -113.202 4 9 304
1950185N18254 1950 32 EP MM NOT_NAMED 1950-07-06 12:00:00 TS 23.3000 -113.600 75 hurdat_epa main 218 O________OO___ hurdat_epa EP021950 23.3000 -113.600 HU 75 1 23.3000 -113.600 TC 75 23.3000 -113.600 4 9 304

IBTrACS Databaseについて

本データベースは、米国NOAAが公開する1842年以降の世界の熱帯低気圧のベストトラックデータアーカイブInternational Best Track Archive for Climate Stewardship (IBTrACS)を、ウェブで閲覧しやすい形式に変換したものです。

最終更新日:2021-10-08